Time;durP1;ratioP1;P1;durP2;ratioP2;P2;SDS_P1;SDS_P2;PMS_P1;PMS_P2;Temp;Humidity;BMP_temperature;BMP_pressure;BME280_temperature;BME280_humidity;BME280_pressure;Samples;Min_cycle;Max_cycle;Signal;HPM_P1;HPM_P2
2021/10/21 00:00:20;;;;;;;11.48;1.40;;;27.80;23.00;;;;;;4953082;28;20100;-66
2021/10/21 00:02:47;;;;;;;13.63;1.88;;;27.80;22.80;;;;;;4951668;28;20134;-63
2021/10/21 00:05:13;;;;;;;9.07;1.30;;;27.70;23.10;;;;;;4968490;28;20557;-63
2021/10/21 00:07:40;;;;;;;11.82;1.50;;;27.70;22.90;;;;;;4967648;28;20219;-63
2021/10/21 00:10:07;;;;;;;9.25;1.92;;;27.60;23.30;;;;;;4967724;28;20092;-62
2021/10/21 00:12:33;;;;;;;13.85;1.83;;;27.60;23.30;;;;;;4951861;28;20541;-62
2021/10/21 00:15:00;;;;;;;9.65;1.27;;;27.50;23.40;;;;;;4951392;28;20076;-65
2021/10/21 00:17:28;;;;;;;10.02;1.35;;;27.40;23.40;;;;;;4951614;28;20099;-63
2021/10/21 00:19:55;;;;;;;13.40;1.58;;;27.30;23.70;;;;;;4953428;28;20083;-63
2021/10/21 00:22:21;;;;;;;9.50;1.40;;;27.30;23.60;;;;;;4951671;28;20115;-63
2021/10/21 00:24:47;;;;;;;5.75;1.40;;;27.20;23.70;;;;;;4952531;28;20175;-66
2021/10/21 00:27:14;;;;;;;12.20;2.40;;;27.00;23.90;;;;;;4968394;28;20182;-66
2021/10/21 00:29:40;;;;;;;11.85;2.03;;;27.00;23.90;;;;;;4953896;28;20072;-65
2021/10/21 00:32:07;;;;;;;13.52;1.75;;;26.90;24.10;;;;;;4955322;28;20596;-66
2021/10/21 00:34:33;;;;;;;12.52;1.83;;;26.90;24.60;;;;;;4954642;28;20419;-64
2021/10/21 00:36:59;;;;;;;11.40;1.85;;;26.80;24.50;;;;;;4954623;28;20080;-64
2021/10/21 00:39:26;;;;;;;13.50;1.70;;;26.80;24.50;;;;;;4970450;28;20103;-62
2021/10/21 00:41:52;;;;;;;14.77;1.83;;;26.70;24.60;;;;;;4954894;28;20200;-63
2021/10/21 00:44:20;;;;;;;12.48;1.52;;;26.60;24.70;;;;;;4967224;28;20075;-65
2021/10/21 00:46:47;;;;;;;8.43;1.70;;;26.50;25.40;;;;;;4966790;28;20088;-63
2021/10/21 00:49:14;;;;;;;9.07;1.80;;;26.40;24.90;;;;;;4951986;28;20075;-63
2021/10/21 00:51:42;;;;;;;9.50;1.50;;;26.30;25.20;;;;;;4952275;28;20087;-67
2021/10/21 00:54:09;;;;;;;9.35;1.63;;;26.20;25.40;;;;;;4934138;28;20179;-66
2021/10/21 00:56:36;;;;;;;15.68;1.98;;;26.20;25.50;;;;;;4950906;28;20506;-65
2021/10/21 00:59:04;;;;;;;6.85;1.88;;;26.10;25.50;;;;;;4918628;28;20588;-63
2021/10/21 01:01:33;;;;;;;6.95;1.60;;;26.00;25.60;;;;;;4950871;28;20082;-65
2021/10/21 01:04:01;;;;;;;15.18;1.50;;;26.00;26.00;;;;;;4950639;28;20094;-63
2021/10/21 01:06:27;;;;;;;13.63;1.77;;;25.80;26.00;;;;;;4935463;28;20166;-64
2021/10/21 01:08:54;;;;;;;16.27;1.83;;;25.80;26.70;;;;;;4950678;28;20523;-63
2021/10/21 01:11:21;;;;;;;9.93;1.77;;;25.70;26.60;;;;;;4965570;28;20533;-64
2021/10/21 01:13:47;;;;;;;11.88;1.58;;;25.60;26.70;;;;;;4966270;28;20122;-64
2021/10/21 01:16:15;;;;;;;9.05;1.60;;;25.50;27.30;;;;;;4966636;28;20087;-69
2021/10/21 01:18:43;;;;;;;14.32;2.10;;;25.40;27.40;;;;;;4950714;28;20617;-65
2021/10/21 01:21:11;;;;;;;13.20;1.85;;;25.30;27.80;;;;;;4967003;28;20111;-65
2021/10/21 01:23:38;;;;;;;11.32;1.67;;;25.20;27.60;;;;;;4967129;28;20068;-64
2021/10/21 01:26:12;;;;;;;17.33;2.10;;;25.10;28.20;;;;;;4952392;28;20111;-63
2021/10/21 01:28:40;;;;;;;14.98;2.05;;;25.00;28.00;;;;;;4966625;28;20540;-64
2021/10/21 01:31:07;;;;;;;25.20;2.55;;;24.90;28.10;;;;;;4967299;28;20111;-65
2021/10/21 01:33:35;;;;;;;18.80;2.50;;;24.80;28.20;;;;;;4952151;28;20793;-65
2021/10/21 01:36:02;;;;;;;21.13;2.47;;;24.70;28.70;;;;;;4951914;28;20090;-66
2021/10/21 01:38:29;;;;;;;22.67;2.45;;;24.50;28.80;;;;;;4952595;28;20091;-65
2021/10/21 01:40:55;;;;;;;20.95;2.53;;;24.40;29.00;;;;;;4967171;28;20076;-63
2021/10/21 01:43:21;;;;;;;22.23;3.35;;;24.30;29.60;;;;;;4950838;28;20307;-64
2021/10/21 01:45:48;;;;;;;26.55;3.70;;;24.20;29.50;;;;;;4951382;28;20071;-64
2021/10/21 01:48:15;;;;;;;28.40;3.58;;;24.10;29.70;;;;;;4967045;28;20130;-65
2021/10/21 01:50:41;;;;;;;23.33;3.45;;;24.00;29.80;;;;;;4951067;28;20079;-62
2021/10/21 01:53:08;;;;;;;21.75;3.72;;;23.90;30.60;;;;;;4967697;28;20076;-63
2021/10/21 01:55:34;;;;;;;27.75;3.85;;;23.90;30.90;;;;;;4951234;28;20076;-66
2021/10/21 01:58:01;;;;;;;25.73;4.35;;;23.80;31.00;;;;;;4951100;28;20487;-62
2021/10/21 02:00:27;;;;;;;27.67;4.18;;;23.70;31.30;;;;;;4951017;28;20108;-62
2021/10/21 02:02:53;;;;;;;35.50;4.63;;;23.60;31.30;;;;;;4967150;28;20080;-63
2021/10/21 02:05:20;;;;;;;29.75;5.43;;;23.60;31.90;;;;;;4965001;28;20130;-63
2021/10/21 02:07:47;;;;;;;28.95;5.15;;;23.50;31.60;;;;;;4952809;28;20098;-64
2021/10/21 02:10:16;;;;;;;30.90;5.95;;;23.40;32.20;;;;;;4954750;28;20137;-64
2021/10/21 02:12:43;;;;;;;36.38;5.53;;;23.30;32.60;;;;;;4953925;28;20135;-65
2021/10/21 02:15:10;;;;;;;41.05;6.03;;;23.20;33.50;;;;;;4953528;28;20080;-65
2021/10/21 02:17:39;;;;;;;42.78;7.00;;;23.10;33.60;;;;;;4966952;28;20076;-64
2021/10/21 02:20:09;;;;;;;53.60;7.35;;;23.10;33.70;;;;;;4967371;28;20207;-65
2021/10/21 02:22:36;;;;;;;50.80;7.43;;;23.10;33.70;;;;;;4969565;28;20087;-63
2021/10/21 02:25:03;;;;;;;57.80;9.65;;;22.90;34.00;;;;;;4954999;28;20094;-63
2021/10/21 02:27:30;;;;;;;62.72;9.20;;;22.80;34.50;;;;;;4952370;28;20199;-63
2021/10/21 02:29:56;;;;;;;65.93;10.27;;;22.70;35.00;;;;;;4952921;28;20103;-65
2021/10/21 02:32:23;;;;;;;77.72;11.15;;;22.70;35.40;;;;;;4954895;28;20083;-64
2021/10/21 02:34:49;;;;;;;66.90;11.43;;;22.70;35.30;;;;;;4955280;28;20098;-63
2021/10/21 02:37:16;;;;;;;77.78;10.57;;;22.70;35.40;;;;;;4955038;28;20079;-63
2021/10/21 02:39:43;;;;;;;63.33;8.90;;;22.60;35.40;;;;;;4954273;28;20099;-64
2021/10/21 02:42:09;;;;;;;51.47;8.90;;;22.50;36.70;;;;;;4955826;28;20545;-66
2021/10/21 02:44:36;;;;;;;47.47;7.72;;;22.40;35.60;;;;;;4953593;28;20073;-66
2021/10/21 02:47:02;;;;;;;52.35;7.65;;;22.30;35.30;;;;;;4969966;28;20522;-63
2021/10/21 02:49:29;;;;;;;50.40;8.02;;;22.30;35.20;;;;;;4953914;28;20158;-66
2021/10/21 02:51:56;;;;;;;40.45;7.75;;;22.40;35.10;;;;;;4954177;28;20076;-62
2021/10/21 02:54:23;;;;;;;39.42;7.97;;;22.20;35.10;;;;;;4955561;28;20086;-63
2021/10/21 02:56:50;;;;;;;44.75;6.53;;;22.20;36.10;;;;;;4955141;28;20115;-67
2021/10/21 02:59:16;;;;;;;34.50;6.78;;;22.10;36.20;;;;;;4953420;28;20091;-64
2021/10/21 03:01:42;;;;;;;;;;;22.00;37.00;;;;;;4970095;28;20080;-63
2021/10/21 03:04:08;;;;;;;42.67;6.15;;;22.00;35.90;;;;;;4955491;28;19990;-65
2021/10/21 03:06:35;;;;;;;47.58;7.95;;;21.90;36.60;;;;;;4954493;28;20100;-63
2021/10/21 03:09:02;;;;;;;47.95;7.15;;;21.80;36.40;;;;;;4953533;28;20087;-64
2021/10/21 03:11:28;;;;;;;50.08;6.20;;;21.90;35.70;;;;;;4955055;28;20118;-65
2021/10/21 03:13:54;;;;;;;53.42;7.03;;;21.80;35.60;;;;;;4954644;28;20103;-67
2021/10/21 03:16:21;;;;;;;52.20;7.03;;;21.70;36.50;;;;;;4969441;28;20683;-64
2021/10/21 03:18:47;;;;;;;71.88;7.63;;;21.70;36.70;;;;;;4957913;28;20139;-64
2021/10/21 03:21:14;;;;;;;64.97;7.57;;;21.60;36.80;;;;;;4954243;28;20099;-64
2021/10/21 03:23:40;;;;;;;52.20;7.95;;;21.70;36.50;;;;;;4955339;28;20071;-64
2021/10/21 03:26:06;;;;;;;45.33;7.95;;;21.70;36.40;;;;;;4954786;28;20122;-65
2021/10/21 03:28:33;;;;;;;41.45;6.40;;;21.70;36.80;;;;;;4953457;28;20593;-67
2021/10/21 03:30:59;;;;;;;59.58;7.72;;;21.70;36.50;;;;;;4969677;28;20680;-65
2021/10/21 03:33:26;;;;;;;44.95;7.50;;;21.60;37.20;;;;;;4970567;28;20083;-67
2021/10/21 03:35:52;;;;;;;47.45;7.97;;;21.50;37.10;;;;;;4970550;28;20535;-64
2021/10/21 03:38:18;;;;;;;48.53;7.95;;;21.50;36.80;;;;;;4954733;28;20080;-64
2021/10/21 03:40:45;;;;;;;58.35;8.70;;;21.60;36.60;;;;;;4968432;28;20082;-63
2021/10/21 03:43:11;;;;;;;45.67;9.20;;;21.50;37.20;;;;;;4952408;28;20086;-65
2021/10/21 03:45:37;;;;;;;39.75;8.88;;;21.50;36.60;;;;;;4968442;28;20162;-63
2021/10/21 03:48:04;;;;;;;60.47;10.77;;;21.50;36.50;;;;;;4968297;28;20515;-66
2021/10/21 03:50:30;;;;;;;56.90;10.82;;;21.40;36.50;;;;;;4951416;28;20565;-64
2021/10/21 03:52:56;;;;;;;;;;;21.40;36.40;;;;;;4951669;28;20598;-63
2021/10/21 03:55:23;;;;;;;60.33;11.82;;;21.30;36.50;;;;;;4967931;28;20086;-66
2021/10/21 03:57:49;;;;;;;55.13;12.48;;;21.40;36.70;;;;;;4952303;28;20522;-66
2021/10/21 04:00:16;;;;;;;65.55;12.65;;;21.40;36.60;;;;;;4952077;28;20095;-66
2021/10/21 04:02:42;;;;;;;70.40;14.02;;;21.30;36.80;;;;;;4951678;28;20068;-65
2021/10/21 04:05:09;;;;;;;51.65;14.68;;;21.30;37.00;;;;;;4951733;28;20523;-65
2021/10/21 04:07:36;;;;;;;56.05;13.27;;;21.30;37.00;;;;;;4951784;28;20101;-65
2021/10/21 04:10:04;;;;;;;67.22;14.55;;;21.20;37.20;;;;;;4951708;28;20606;-65
2021/10/21 04:12:31;;;;;;;62.70;14.07;;;21.10;37.20;;;;;;4951072;28;20080;-65
2021/10/21 04:14:58;;;;;;;94.85;18.17;;;21.00;37.10;;;;;;4951738;28;20433;-67
2021/10/21 04:17:24;;;;;;;99.57;17.00;;;21.00;38.00;;;;;;4952678;28;20494;-63
2021/10/21 04:19:51;;;;;;;79.75;16.63;;;21.00;38.20;;;;;;4951293;28;20087;-66
2021/10/21 04:22:17;;;;;;;77.32;16.95;;;21.00;38.10;;;;;;4951836;28;20099;-67
2021/10/21 04:24:44;;;;;;;73.32;15.90;;;21.00;37.70;;;;;;4950433;28;20087;-67
2021/10/21 04:27:10;;;;;;;99.72;20.20;;;20.90;37.80;;;;;;4952019;28;20080;-67
2021/10/21 04:29:36;;;;;;;77.70;18.08;;;20.90;37.80;;;;;;4950372;28;20166;-65
2021/10/21 04:32:03;;;;;;;;;;;20.90;38.00;;;;;;4951940;28;20123;-63
2021/10/21 04:34:29;;;;;;;77.90;18.00;;;20.80;38.70;;;;;;4967692;28;20027;-64
2021/10/21 04:36:55;;;;;;;83.85;17.98;;;20.80;39.10;;;;;;4952621;28;20566;-64
2021/10/21 04:39:22;;;;;;;75.90;18.27;;;20.80;38.70;;;;;;4952383;28;20096;-63
2021/10/21 04:41:48;;;;;;;;;;;20.80;38.50;;;;;;4951988;28;20122;-64
2021/10/21 04:44:14;;;;;;;73.95;17.70;;;20.70;38.80;;;;;;4952397;28;19981;-66
2021/10/21 04:46:40;;;;;;;73.65;17.40;;;20.60;40.00;;;;;;4950552;28;20083;-64
2021/10/21 04:49:07;;;;;;;82.38;18.00;;;20.50;39.40;;;;;;4951280;28;20115;-64
2021/10/21 04:51:33;;;;;;;;;;;20.50;39.50;;;;;;4951404;28;20205;-63
2021/10/21 04:53:59;;;;;;;63.33;16.20;;;20.50;39.70;;;;;;4952397;28;20372;-68
2021/10/21 04:56:25;;;;;;;;;;;20.40;39.60;;;;;;4952430;28;20107;-65
2021/10/21 04:58:51;;;;;;;65.63;17.10;;;20.50;39.40;;;;;;4950914;28;20380;-65
2021/10/21 05:01:17;;;;;;;;;;;20.40;39.50;;;;;;4951055;28;20076;-65
2021/10/21 05:03:44;;;;;;;75.30;20.73;;;20.40;40.00;;;;;;4951084;28;19959;-65
2021/10/21 05:06:10;;;;;;;69.40;19.63;;;20.40;39.70;;;;;;4953592;28;20103;-64
2021/10/21 05:08:37;;;;;;;70.40;18.40;;;20.40;39.70;;;;;;4950855;28;20553;-66
2021/10/21 05:11:03;;;;;;;;;;;20.30;39.60;;;;;;4950910;28;20520;-67
2021/10/21 05:13:29;;;;;;;64.80;17.67;;;20.30;40.10;;;;;;4950535;28;19959;-65
2021/10/21 05:15:56;;;;;;;77.10;18.50;;;20.20;40.70;;;;;;4950373;28;20075;-66
2021/10/21 05:18:22;;;;;;;56.67;17.73;;;20.20;41.00;;;;;;4950405;28;20119;-65
2021/10/21 05:20:49;;;;;;;66.05;18.42;;;20.10;41.60;;;;;;4950203;28;20435;-66
2021/10/21 05:23:15;;;;;;;65.15;18.98;;;20.00;42.30;;;;;;4950870;28;20076;-65
2021/10/21 05:25:42;;;;;;;86.00;19.67;;;19.90;42.60;;;;;;4963535;28;20079;-66
2021/10/21 05:28:08;;;;;;;76.05;18.67;;;19.90;42.20;;;;;;4950566;28;20072;-64
2021/10/21 05:30:35;;;;;;;69.95;18.00;;;20.00;42.10;;;;;;4949543;28;20126;-66
2021/10/21 05:33:02;;;;;;;;;;;19.90;42.10;;;;;;4950693;28;20135;-66
2021/10/21 05:35:29;;;;;;;66.25;17.58;;;19.80;42.90;;;;;;4965567;28;19959;-64
2021/10/21 05:37:55;;;;;;;62.35;17.95;;;19.80;42.60;;;;;;4950440;28;20100;-63
2021/10/21 05:40:22;;;;;;;67.75;18.02;;;19.80;42.40;;;;;;4952143;28;20092;-66
2021/10/21 05:42:48;;;;;;;60.38;17.17;;;19.80;42.20;;;;;;4955253;28;20072;-65
2021/10/21 05:45:15;;;;;;;62.47;18.73;;;19.80;42.90;;;;;;4953990;28;20068;-65
2021/10/21 05:47:42;;;;;;;66.53;17.88;;;19.70;43.50;;;;;;4954154;28;20078;-63
2021/10/21 05:50:09;;;;;;;77.70;18.90;;;19.70;43.30;;;;;;4954473;28;20075;-66
2021/10/21 05:52:37;;;;;;;73.82;16.95;;;19.70;43.30;;;;;;4961048;28;20142;-64
2021/10/21 05:55:04;;;;;;;63.60;16.77;;;19.60;43.30;;;;;;4955383;28;20090;-64
2021/10/21 05:57:31;;;;;;;69.75;17.42;;;19.60;43.10;;;;;;4938636;28;20545;-66
2021/10/21 05:59:57;;;;;;;76.22;17.60;;;19.60;43.60;;;;;;4960685;28;20100;-64
2021/10/21 06:02:24;;;;;;;56.67;16.35;;;19.60;43.50;;;;;;4938362;28;20076;-61
2021/10/21 06:04:50;;;;;;;;;;;19.60;42.90;;;;;;4956088;28;20071;-65
2021/10/21 06:07:16;;;;;;;73.80;17.08;;;19.60;43.10;;;;;;4970619;28;19981;-65
2021/10/21 06:09:44;;;;;;;64.95;16.80;;;19.60;42.40;;;;;;4954204;28;20111;-66
2021/10/21 06:12:10;;;;;;;60.58;15.35;;;19.60;42.20;;;;;;4970295;28;20131;-66
2021/10/21 06:14:37;;;;;;;68.85;16.70;;;19.60;42.30;;;;;;4955079;28;20511;-66
2021/10/21 06:17:03;;;;;;;64.15;16.90;;;19.60;42.80;;;;;;4953879;28;20564;-66
2021/10/21 06:19:30;;;;;;;75.25;16.50;;;19.50;43.50;;;;;;4954804;28;20545;-65
2021/10/21 06:22:03;;;;;;;59.45;17.38;;;19.50;43.80;;;;;;4953138;28;20095;-66
2021/10/21 06:24:30;;;;;;;66.72;17.38;;;19.40;43.40;;;;;;4952193;28;20088;-66
2021/10/21 06:26:56;;;;;;;;;;;19.40;43.10;;;;;;4953548;28;20071;-65
2021/10/21 06:29:22;;;;;;;63.65;18.50;;;19.40;43.50;;;;;;4968988;28;19963;-65
2021/10/21 06:31:50;;;;;;;80.40;19.38;;;19.40;43.80;;;;;;4953074;28;20134;-66
2021/10/21 06:34:16;;;;;;;77.85;18.85;;;19.30;43.20;;;;;;4953428;28;20083;-66
2021/10/21 06:36:43;;;;;;;86.68;20.08;;;19.40;43.10;;;;;;4967457;28;20083;-65
2021/10/21 06:39:09;;;;;;;103.53;20.98;;;19.30;43.40;;;;;;4953458;28;20629;-65
2021/10/21 06:41:36;;;;;;;68.43;19.20;;;19.30;43.70;;;;;;4969140;28;20183;-63
2021/10/21 06:44:02;;;;;;;74.40;19.30;;;19.20;43.80;;;;;;4954571;28;20434;-66
2021/10/21 06:46:29;;;;;;;90.50;20.83;;;19.20;43.40;;;;;;4952700;28;20079;-64
2021/10/21 06:48:58;;;;;;;69.10;18.90;;;19.20;42.90;;;;;;4954151;28;20135;-67
2021/10/21 06:51:25;;;;;;;97.72;21.80;;;19.30;42.80;;;;;;4954480;28;20550;-66
2021/10/21 06:53:52;;;;;;;84.38;21.83;;;19.20;42.70;;;;;;4969435;28;20090;-67
2021/10/21 06:56:19;;;;;;;76.15;20.58;;;19.20;42.90;;;;;;4969399;28;20102;-65
2021/10/21 06:58:45;;;;;;;84.57;19.98;;;19.20;43.50;;;;;;4952843;28;20088;-64
2021/10/21 07:01:12;;;;;;;;;;;19.10;43.90;;;;;;4953285;28;20167;-67
2021/10/21 07:03:38;;;;;;;72.80;19.02;;;19.10;43.10;;;;;;4953521;28;19966;-67
2021/10/21 07:06:04;;;;;;;75.35;19.77;;;19.10;43.00;;;;;;4954648;28;20074;-66
2021/10/21 07:08:31;;;;;;;;;;;19.10;43.00;;;;;;4953223;28;20087;-64
2021/10/21 07:10:57;;;;;;;74.28;19.75;;;19.00;42.90;;;;;;4952495;28;19963;-67
2021/10/21 07:13:24;;;;;;;70.45;17.83;;;19.00;44.00;;;;;;4952799;28;20449;-66
2021/10/21 07:15:51;;;;;;;62.38;16.90;;;19.00;42.60;;;;;;4952443;28;20080;-69
2021/10/21 07:18:17;;;;;;;;;;;19.00;42.40;;;;;;4953053;28;20115;-64
2021/10/21 07:20:43;;;;;;;65.88;16.27;;;18.90;42.20;;;;;;4952579;28;19983;-64
2021/10/21 07:23:10;;;;;;;59.30;16.67;;;18.90;42.10;;;;;;4953148;28;20434;-66
2021/10/21 07:25:36;;;;;;;;;;;18.90;42.30;;;;;;4952859;28;20070;-64
2021/10/21 07:28:03;;;;;;;49.13;14.90;;;18.90;42.90;;;;;;4953902;28;20050;-67
2021/10/21 07:30:30;;;;;;;64.07;15.73;;;18.80;42.80;;;;;;4968505;28;20810;-66
2021/10/21 07:33:00;;;;;;;55.95;14.50;;;18.80;43.10;;;;;;4955248;28;20569;-64
2021/10/21 07:35:31;;;;;;;54.28;15.50;;;18.80;42.90;;;;;;4954521;28;20080;-63
2021/10/21 07:38:01;;;;;;;74.00;14.77;;;18.80;43.30;;;;;;4968886;28;20085;-63
2021/10/21 07:40:28;;;;;;;57.13;13.93;;;18.80;42.50;;;;;;4952820;28;20102;-62
2021/10/21 07:42:54;;;;;;;51.15;13.18;;;18.70;42.60;;;;;;4954107;28;20079;-63
2021/10/21 07:45:20;;;;;;;59.17;14.27;;;18.70;41.80;;;;;;4953374;28;20072;-65
2021/10/21 07:47:46;;;;;;;;;;;18.70;42.70;;;;;;4952337;28;20072;-66
2021/10/21 07:50:14;;;;;;;41.75;11.70;;;18.70;41.50;;;;;;4952257;28;20464;-67
2021/10/21 07:52:43;;;;;;;49.58;10.50;;;18.60;40.80;;;;;;4952076;28;20470;-67
2021/10/21 07:55:09;;;;;;;46.72;10.90;;;18.70;41.70;;;;;;4951970;28;20080;-63
2021/10/21 07:57:36;;;;;;;34.72;10.68;;;18.70;40.30;;;;;;4954041;28;20107;-63
2021/10/21 08:00:05;;;;;;;47.10;9.95;;;18.70;39.70;;;;;;4935640;28;20434;-67
2021/10/21 08:02:32;;;;;;;29.08;9.32;;;18.70;39.70;;;;;;4967955;28;20532;-66
2021/10/21 08:04:58;;;;;;;;;;;18.70;40.20;;;;;;4967509;28;20146;-63
2021/10/21 08:07:24;;;;;;;34.15;10.35;;;18.60;40.00;;;;;;4967593;28;19959;-64
2021/10/21 08:09:50;;;;;;;;;;;18.60;39.70;;;;;;4952374;28;20202;-66
2021/10/21 08:12:17;;;;;;;45.60;9.73;;;18.70;39.50;;;;;;4951437;28;20001;-63
2021/10/21 08:14:43;;;;;;;45.28;9.88;;;18.60;39.20;;;;;;4951621;28;20179;-62
2021/10/21 08:17:09;;;;;;;;;;;18.60;39.70;;;;;;4968237;28;20076;-67
2021/10/21 08:19:36;;;;;;;38.95;9.13;;;18.60;40.70;;;;;;4951395;28;20044;-63
2021/10/21 08:22:03;;;;;;;36.33;8.75;;;18.60;40.50;;;;;;4967709;28;20142;-63
2021/10/21 08:24:29;;;;;;;32.38;8.85;;;18.60;40.20;;;;;;4968007;28;20080;-64
2021/10/21 08:26:55;;;;;;;;;;;18.50;40.40;;;;;;4968110;28;20502;-63
2021/10/21 08:29:23;;;;;;;28.17;8.55;;;18.50;62.70;;;;;;4965973;28;19963;-62
2021/10/21 08:32:02;;;;;;;35.65;8.65;;;18.50;41.60;;;;;;4950793;28;20122;-62
2021/10/21 08:34:29;;;;;;;39.80;9.20;;;18.50;41.20;;;;;;4966821;28;20087;-62
2021/10/21 08:36:56;;;;;;;37.38;8.70;;;18.50;41.00;;;;;;4936174;28;20099;-64
2021/10/21 08:39:22;;;;;;;;;;;18.50;41.10;;;;;;4952303;28;20103;-62
2021/10/21 08:41:49;;;;;;;32.10;8.98;;;18.40;42.30;;;;;;4952681;28;19955;-64
2021/10/21 08:44:16;;;;;;;37.00;9.70;;;18.40;42.20;;;;;;4951777;28;20095;-63
2021/10/21 08:46:46;;;;;;;35.42;10.15;;;18.40;42.00;;;;;;4951089;28;20080;-63
2021/10/21 08:49:13;;;;;;;38.80;11.68;;;18.40;41.80;;;;;;4951160;28;20079;-63
2021/10/21 08:51:39;;;;;;;44.03;13.13;;;18.40;42.00;;;;;;4965900;28;20099;-63
2021/10/21 08:54:05;;;;;;;;;;;18.40;41.80;;;;;;4953105;28;20106;-63
2021/10/21 08:56:32;;;;;;;40.10;14.52;;;18.30;41.50;;;;;;4950788;28;19982;-64
2021/10/21 08:59:00;;;;;;;46.40;15.45;;;18.30;40.80;;;;;;4950567;28;20146;-65
2021/10/21 09:09:28;;;;;;;45.33;17.23;;;18.20;42.00;;;;;;4952233;28;20553;-64
2021/10/21 09:12:07;;;;;;;51.60;17.40;;;18.20;41.80;;;;;;4966555;28;20079;-62
2021/10/21 09:14:36;;;;;;;54.20;17.77;;;18.20;41.50;;;;;;4966026;28;20136;-65
2021/10/21 09:17:04;;;;;;;53.22;18.33;;;18.20;41.30;;;;;;4966407;28;20075;-62
2021/10/21 09:19:31;;;;;;;45.17;18.20;;;18.10;41.70;;;;;;4934702;28;20162;-62
2021/10/21 09:21:59;;;;;;;39.53;16.60;;;18.00;71.00;;;;;;4950831;28;20134;-63
2021/10/21 09:24:33;;;;;;;48.85;16.17;;;18.10;41.10;;;;;;4950155;28;20076;-61
2021/10/21 09:27:00;;;;;;;51.22;17.25;;;18.20;45.80;;;;;;4950564;28;20163;-63
2021/10/21 09:29:27;;;;;;;50.22;17.40;;;18.10;40.90;;;;;;4950559;28;20084;-66
2021/10/21 09:32:10;;;;;;;42.67;16.60;;;18.10;41.80;;;;;;4950004;28;20155;-63
2021/10/21 09:35:14;;;;;;;53.50;18.25;;;18.10;42.20;;;;;;4950588;28;20462;-64
2021/10/21 09:37:42;;;;;;;46.05;16.98;;;18.00;42.60;;;;;;4930662;29;20080;-63
2021/10/21 09:40:11;;;;;;;56.58;16.63;;;18.00;41.90;;;;;;4916048;29;20563;-62
2021/10/21 09:42:40;;;;;;;62.63;16.85;;;18.00;41.90;;;;;;4911797;29;20077;-63
2021/10/21 09:45:23;;;;;;;57.03;16.42;;;18.00;41.40;;;;;;4927935;29;20084;-62
2021/10/21 09:48:00;;;;;;;54.45;16.90;;;17.90;41.60;;;;;;4928358;29;20642;-61
2021/10/21 09:50:40;;;;;;;51.00;15.55;;;17.90;42.20;;;;;;4911065;29;20079;-62
2021/10/21 09:53:19;;;;;;;36.05;14.60;;;17.90;42.70;;;;;;4929679;29;20080;-63
2021/10/21 09:56:07;;;;;;;42.70;14.43;;;17.90;42.00;;;;;;4915482;29;20834;-65
2021/10/21 09:58:39;;;;;;;44.08;13.45;;;17.90;42.20;;;;;;4930035;29;20206;-62
2021/10/21 10:01:33;;;;;;;43.25;14.07;;;17.70;52.90;;;;;;4913945;29;20560;-63
2021/10/21 10:04:00;;;;;;;37.05;13.52;;;17.80;43.60;;;;;;4913724;29;20104;-64
2021/10/21 10:06:26;;;;;;;35.33;12.82;;;17.70;43.40;;;;;;4914116;29;20478;-63
2021/10/21 10:08:53;;;;;;;37.22;12.27;;;17.70;43.10;;;;;;4928400;29;20108;-63
2021/10/21 10:11:19;;;;;;;;;;;17.70;43.30;;;;;;4939306;28;20127;-61
2021/10/21 10:13:47;;;;;;;44.95;13.63;;;17.80;67.10;;;;;;4948122;28;20009;-63
2021/10/21 10:16:17;;;;;;;33.78;12.10;;;17.50;68.30;;;;;;4963900;28;20104;-65
2021/10/21 10:18:46;;;;;;;37.17;11.25;;;17.60;42.70;;;;;;4949275;28;20072;-63
2021/10/21 10:21:18;;;;;;;23.80;9.32;;;17.70;42.40;;;;;;4966126;28;20481;-63
2021/10/21 10:23:54;;;;;;;27.95;10.00;;;17.70;42.30;;;;;;4948930;28;20087;-64
2021/10/21 10:26:49;;;;;;;33.63;9.13;;;17.60;43.40;;;;;;4950189;28;20072;-62
2021/10/21 10:29:43;;;;;;;28.55;8.85;;;17.50;43.00;;;;;;4967978;28;20090;-62
2021/10/21 10:32:42;;;;;;;31.85;8.82;;;17.50;42.70;;;;;;4951541;28;20450;-63
2021/10/21 10:35:10;;;;;;;34.75;8.70;;;17.50;43.00;;;;;;4942246;28;20094;-64
2021/10/21 10:37:41;;;;;;;30.42;8.43;;;17.60;42.80;;;;;;4952988;28;20158;-62
2021/10/21 10:40:08;;;;;;;34.25;7.78;;;17.50;43.10;;;;;;4951626;28;20573;-63
2021/10/21 10:42:39;;;;;;;28.27;7.15;;;17.50;42.30;;;;;;4952338;28;20080;-62
2021/10/21 10:45:13;;;;;;;21.27;6.50;;;17.50;42.20;;;;;;4951272;28;20078;-64
2021/10/21 10:47:58;;;;;;;32.55;6.75;;;17.50;42.30;;;;;;4951297;28;20072;-65
2021/10/21 10:50:28;;;;;;;20.38;5.90;;;17.40;41.90;;;;;;4937972;28;20560;-63
2021/10/21 10:52:59;;;;;;;18.25;5.13;;;17.40;41.60;;;;;;4952124;28;20076;-64
2021/10/21 10:55:47;;;;;;;21.27;5.10;;;17.40;41.70;;;;;;4952811;28;20076;-65
2021/10/21 10:58:29;;;;;;;22.55;5.50;;;17.30;41.80;;;;;;4968786;28;20080;-63
2021/10/21 11:00:58;;;;;;;18.52;4.03;;;17.30;41.70;;;;;;4967507;28;20084;-62
2021/10/21 11:03:45;;;;;;;18.23;3.97;;;17.30;41.80;;;;;;4952525;28;20076;-62
2021/10/21 11:06:25;;;;;;;18.30;3.80;;;17.30;41.30;;;;;;4932284;28;20142;-62
2021/10/21 11:09:03;;;;;;;21.98;3.65;;;17.30;41.30;;;;;;4951784;28;20091;-65
2021/10/21 11:11:40;;;;;;;15.75;3.45;;;17.40;41.00;;;;;;4967300;28;20538;-63
2021/10/21 11:14:33;;;;;;;14.38;2.83;;;17.30;40.50;;;;;;4965957;28;20186;-63
2021/10/21 11:17:00;;;;;;;16.92;2.53;;;17.40;40.20;;;;;;4953260;28;20087;-65
2021/10/21 11:19:45;;;;;;;12.02;2.92;;;17.40;40.60;;;;;;4951494;28;20187;-62
2021/10/21 11:22:31;;;;;;;14.82;2.70;;;17.40;40.90;;;;;;4966384;28;20150;-62
2021/10/21 11:25:03;;;;;;;14.00;2.67;;;17.40;40.90;;;;;;4942620;28;20087;-61
2021/10/21 11:27:42;;;;;;;12.70;2.75;;;17.40;41.10;;;;;;4935609;28;20071;-63
2021/10/21 11:30:24;;;;;;;17.20;2.83;;;16.80;47.30;;;;;;4951273;28;20095;-64
2021/10/21 11:32:52;;;;;;;9.52;2.30;;;17.20;41.80;;;;;;4966413;28;20083;-63
2021/10/21 11:35:26;;;;;;;15.68;2.60;;;17.20;41.60;;;;;;4966436;28;20084;-63
2021/10/21 11:37:55;;;;;;;18.58;2.38;;;17.30;41.60;;;;;;4952437;28;20515;-62
2021/10/21 11:40:37;;;;;;;16.67;2.50;;;17.30;41.80;;;;;;4950377;28;20609;-62
2021/10/21 11:43:23;;;;;;;17.77;2.15;;;17.30;42.10;;;;;;4951144;28;20219;-62
2021/10/21 11:45:58;;;;;;;12.23;2.42;;;17.20;42.50;;;;;;4951721;28;20166;-65
2021/10/21 11:48:28;;;;;;;15.50;2.50;;;17.10;42.20;;;;;;4951179;28;20177;-63
2021/10/21 11:50:55;;;;;;;13.93;2.65;;;17.10;41.40;;;;;;4949225;28;20126;-65
2021/10/21 11:53:22;;;;;;;16.38;2.30;;;17.10;41.60;;;;;;4950722;28;20087;-63
2021/10/21 11:55:51;;;;;;;19.33;2.38;;;17.10;41.60;;;;;;4966100;28;20079;-63
2021/10/21 11:58:25;;;;;;;11.38;3.05;;;17.10;41.60;;;;;;4968131;28;20083;-63
2021/10/21 12:01:00;;;;;;;23.42;4.68;;;17.10;42.00;;;;;;4950439;28;20126;-62
2021/10/21 12:03:36;;;;;;;23.50;7.88;;;17.20;42.30;;;;;;4965737;28;20067;-65
2021/10/21 12:06:07;;;;;;;37.65;13.60;;;17.10;42.30;;;;;;4949416;28;20071;-65
2021/10/21 12:08:34;;;;;;;53.45;22.55;;;17.10;42.20;;;;;;4950077;28;20122;-65
2021/10/21 12:11:07;;;;;;;66.65;24.42;;;17.10;41.90;;;;;;4955172;28;20072;-63
2021/10/21 12:13:36;;;;;;;64.38;25.15;;;17.10;42.10;;;;;;4964278;28;20094;-66
2021/10/21 12:16:10;;;;;;;71.32;27.13;;;17.10;41.70;;;;;;4948285;28;20079;-63
2021/10/21 12:18:37;;;;;;;70.43;25.77;;;17.10;41.80;;;;;;4949293;28;20092;-66
2021/10/21 12:21:06;;;;;;;75.13;26.65;;;17.10;42.50;;;;;;4951137;28;20122;-63
2021/10/21 12:23:54;;;;;;;63.85;23.40;;;17.20;42.50;;;;;;4965641;28;20134;-63
2021/10/21 12:26:29;;;;;;;64.43;23.45;;;17.20;42.40;;;;;;4950620;28;20103;-64
2021/10/21 12:29:02;;;;;;;55.90;22.23;;;17.20;42.60;;;;;;4966432;28;20583;-64
2021/10/21 12:31:30;;;;;;;53.42;18.95;;;17.20;42.80;;;;;;4934021;28;20111;-64
2021/10/21 12:34:00;;;;;;;49.75;17.55;;;17.20;42.50;;;;;;4935570;28;20123;-62
2021/10/21 12:36:32;;;;;;;44.13;16.33;;;17.20;42.50;;;;;;4951107;28;20110;-66
2021/10/21 12:39:24;;;;;;;45.38;15.88;;;17.30;42.60;;;;;;4949329;28;20122;-62
2021/10/21 12:41:59;;;;;;;40.75;13.23;;;17.20;42.40;;;;;;4951563;28;20076;-66
2021/10/21 12:44:37;;;;;;;31.65;10.80;;;17.20;42.20;;;;;;4964367;28;20090;-61
2021/10/21 12:47:22;;;;;;;30.02;9.88;;;17.20;42.10;;;;;;4963831;28;20526;-65
2021/10/21 12:49:58;;;;;;;28.48;9.68;;;17.10;42.10;;;;;;4952325;28;20079;-63
2021/10/21 12:52:32;;;;;;;29.70;10.80;;;16.90;43.30;;;;;;4965003;28;20083;-65
2021/10/21 12:55:18;;;;;;;28.48;8.32;;;16.90;43.20;;;;;;4934401;28;20537;-62